sensor_id;sensor_type;location;lat;lon;timestamp;P1;durP1;ratioP1;P2;durP2;ratioP2
43996;SDS011;34318;45.818;15.964;2023-11-19T00:00:59;18.00;;;16.17;;
43996;SDS011;34318;45.818;15.964;2023-11-19T00:03:27;15.98;;;14.45;;
43996;SDS011;34318;45.818;15.964;2023-11-19T00:05:54;17.35;;;15.55;;
43996;SDS011;34318;45.818;15.964;2023-11-19T00:08:22;18.25;;;16.13;;
43996;SDS011;34318;45.818;15.964;2023-11-19T00:10:51;16.77;;;14.45;;
43996;SDS011;34318;45.818;15.964;2023-11-19T00:13:18;16.92;;;15.30;;
43996;SDS011;34318;45.818;15.964;2023-11-19T00:15:45;16.70;;;14.85;;
43996;SDS011;34318;45.818;15.964;2023-11-19T00:18:14;15.20;;;13.73;;
43996;SDS011;34318;45.818;15.964;2023-11-19T00:20:42;15.98;;;14.27;;
43996;SDS011;34318;45.818;15.964;2023-11-19T00:23:11;16.33;;;14.65;;
43996;SDS011;34318;45.818;15.964;2023-11-19T00:25:38;15.60;;;13.88;;
43996;SDS011;34318;45.818;15.964;2023-11-19T00:28:05;15.90;;;14.40;;
43996;SDS011;34318;45.818;15.964;2023-11-19T00:30:33;14.32;;;13.02;;
43996;SDS011;34318;45.818;15.964;2023-11-19T00:33:00;15.88;;;14.18;;
43996;SDS011;34318;45.818;15.964;2023-11-19T00:35:27;14.85;;;13.35;;
43996;SDS011;34318;45.818;15.964;2023-11-19T00:37:55;37.17;;;14.55;;
43996;SDS011;34318;45.818;15.964;2023-11-19T00:40:22;14.93;;;13.43;;
43996;SDS011;34318;45.818;15.964;2023-11-19T00:42:50;14.73;;;13.20;;
43996;SDS011;34318;45.818;15.964;2023-11-19T00:45:17;13.95;;;12.65;;
43996;SDS011;34318;45.818;15.964;2023-11-19T00:47:45;14.90;;;13.40;;
43996;SDS011;34318;45.818;15.964;2023-11-19T00:50:13;14.07;;;12.85;;
43996;SDS011;34318;45.818;15.964;2023-11-19T00:52:40;13.88;;;12.48;;
43996;SDS011;34318;45.818;15.964;2023-11-19T00:55:11;14.27;;;12.95;;
43996;SDS011;34318;45.818;15.964;2023-11-19T00:57:38;14.35;;;12.98;;
43996;SDS011;34318;45.818;15.964;2023-11-19T01:00:06;13.15;;;11.88;;
43996;SDS011;34318;45.818;15.964;2023-11-19T01:02:46;13.20;;;11.88;;
43996;SDS011;34318;45.818;15.964;2023-11-19T01:05:16;14.77;;;12.23;;
43996;SDS011;34318;45.818;15.964;2023-11-19T01:07:47;12.75;;;11.55;;
43996;SDS011;34318;45.818;15.964;2023-11-19T01:10:14;13.50;;;12.20;;
43996;SDS011;34318;45.818;15.964;2023-11-19T01:12:42;13.95;;;12.50;;
43996;SDS011;34318;45.818;15.964;2023-11-19T01:15:09;12.73;;;11.57;;
43996;SDS011;34318;45.818;15.964;2023-11-19T01:17:37;12.63;;;11.32;;
43996;SDS011;34318;45.818;15.964;2023-11-19T01:20:04;12.90;;;11.57;;
43996;SDS011;34318;45.818;15.964;2023-11-19T01:22:33;12.13;;;10.93;;
43996;SDS011;34318;45.818;15.964;2023-11-19T01:25:00;12.68;;;11.48;;
43996;SDS011;34318;45.818;15.964;2023-11-19T01:27:27;13.27;;;11.95;;
43996;SDS011;34318;45.818;15.964;2023-11-19T01:29:55;12.95;;;11.77;;
43996;SDS011;34318;45.818;15.964;2023-11-19T01:32:22;12.82;;;11.63;;
43996;SDS011;34318;45.818;15.964;2023-11-19T01:34:50;11.40;;;10.30;;
43996;SDS011;34318;45.818;15.964;2023-11-19T01:37:17;12.88;;;11.65;;
43996;SDS011;34318;45.818;15.964;2023-11-19T01:39:45;12.13;;;10.95;;
43996;SDS011;34318;45.818;15.964;2023-11-19T01:42:24;13.10;;;11.65;;
43996;SDS011;34318;45.818;15.964;2023-11-19T01:44:58;14.38;;;10.95;;
43996;SDS011;34318;45.818;15.964;2023-11-19T01:47:26;10.30;;;9.30;;
43996;SDS011;34318;45.818;15.964;2023-11-19T01:49:54;11.80;;;10.60;;
43996;SDS011;34318;45.818;15.964;2023-11-19T01:52:21;11.63;;;10.43;;
43996;SDS011;34318;45.818;15.964;2023-11-19T01:54:49;13.88;;;10.32;;
43996;SDS011;34318;45.818;15.964;2023-11-19T01:57:16;11.52;;;10.30;;
43996;SDS011;34318;45.818;15.964;2023-11-19T01:59:44;10.93;;;9.93;;
43996;SDS011;34318;45.818;15.964;2023-11-19T02:02:11;11.20;;;10.10;;
43996;SDS011;34318;45.818;15.964;2023-11-19T02:04:39;11.43;;;10.32;;
43996;SDS011;34318;45.818;15.964;2023-11-19T02:07:07;12.43;;;10.15;;
43996;SDS011;34318;45.818;15.964;2023-11-19T02:09:35;11.23;;;9.60;;
43996;SDS011;34318;45.818;15.964;2023-11-19T02:12:04;11.32;;;10.00;;
43996;SDS011;34318;45.818;15.964;2023-11-19T02:14:31;9.80;;;8.50;;
43996;SDS011;34318;45.818;15.964;2023-11-19T02:16:59;9.80;;;8.80;;
43996;SDS011;34318;45.818;15.964;2023-11-19T02:19:26;10.43;;;9.23;;
43996;SDS011;34318;45.818;15.964;2023-11-19T02:21:54;10.13;;;9.07;;
43996;SDS011;34318;45.818;15.964;2023-11-19T02:24:22;10.20;;;9.20;;
43996;SDS011;34318;45.818;15.964;2023-11-19T02:26:52;9.43;;;8.52;;
43996;SDS011;34318;45.818;15.964;2023-11-19T02:29:22;10.13;;;8.88;;
43996;SDS011;34318;45.818;15.964;2023-11-19T02:31:50;9.98;;;8.95;;
43996;SDS011;34318;45.818;15.964;2023-11-19T02:34:17;9.45;;;8.57;;
43996;SDS011;34318;45.818;15.964;2023-11-19T02:36:44;10.57;;;9.68;;
43996;SDS011;34318;45.818;15.964;2023-11-19T02:39:13;10.18;;;9.18;;
43996;SDS011;34318;45.818;15.964;2023-11-19T02:41:41;9.35;;;8.25;;
43996;SDS011;34318;45.818;15.964;2023-11-19T02:44:08;10.65;;;9.57;;
43996;SDS011;34318;45.818;15.964;2023-11-19T02:46:35;9.57;;;8.68;;
43996;SDS011;34318;45.818;15.964;2023-11-19T02:49:03;9.40;;;8.50;;
43996;SDS011;34318;45.818;15.964;2023-11-19T02:51:30;9.30;;;8.50;;
43996;SDS011;34318;45.818;15.964;2023-11-19T02:53:58;9.48;;;8.57;;
43996;SDS011;34318;45.818;15.964;2023-11-19T02:56:25;9.93;;;8.48;;
43996;SDS011;34318;45.818;15.964;2023-11-19T02:58:52;9.43;;;8.57;;
43996;SDS011;34318;45.818;15.964;2023-11-19T03:01:24;9.02;;;8.23;;
43996;SDS011;34318;45.818;15.964;2023-11-19T03:03:58;8.07;;;7.38;;
43996;SDS011;34318;45.818;15.964;2023-11-19T03:06:26;9.93;;;7.55;;
43996;SDS011;34318;45.818;15.964;2023-11-19T03:08:55;8.02;;;7.32;;
43996;SDS011;34318;45.818;15.964;2023-11-19T03:11:22;8.43;;;7.57;;
43996;SDS011;34318;45.818;15.964;2023-11-19T03:13:51;10.00;;;7.82;;
43996;SDS011;34318;45.818;15.964;2023-11-19T03:16:18;8.45;;;7.65;;
43996;SDS011;34318;45.818;15.964;2023-11-19T03:18:46;8.55;;;7.72;;
43996;SDS011;34318;45.818;15.964;2023-11-19T03:21:13;8.63;;;7.72;;
43996;SDS011;34318;45.818;15.964;2023-11-19T03:23:40;8.68;;;7.88;;
43996;SDS011;34318;45.818;15.964;2023-11-19T03:26:08;8.45;;;7.70;;
43996;SDS011;34318;45.818;15.964;2023-11-19T03:28:37;8.85;;;8.05;;
43996;SDS011;34318;45.818;15.964;2023-11-19T03:31:04;9.85;;;8.07;;
43996;SDS011;34318;45.818;15.964;2023-11-19T03:33:35;7.38;;;6.78;;
43996;SDS011;34318;45.818;15.964;2023-11-19T03:36:04;7.80;;;7.05;;
43996;SDS011;34318;45.818;15.964;2023-11-19T03:38:31;7.65;;;6.90;;
43996;SDS011;34318;45.818;15.964;2023-11-19T03:40:59;8.23;;;7.43;;
43996;SDS011;34318;45.818;15.964;2023-11-19T03:43:26;8.18;;;7.38;;
43996;SDS011;34318;45.818;15.964;2023-11-19T03:45:54;7.38;;;6.68;;
43996;SDS011;34318;45.818;15.964;2023-11-19T03:48:21;7.93;;;7.15;;
43996;SDS011;34318;45.818;15.964;2023-11-19T03:50:48;7.30;;;6.70;;
43996;SDS011;34318;45.818;15.964;2023-11-19T03:53:16;7.68;;;6.72;;
43996;SDS011;34318;45.818;15.964;2023-11-19T03:55:45;7.32;;;6.63;;
43996;SDS011;34318;45.818;15.964;2023-11-19T03:58:12;7.82;;;7.13;;
43996;SDS011;34318;45.818;15.964;2023-11-19T04:00:40;6.60;;;6.00;;
43996;SDS011;34318;45.818;15.964;2023-11-19T04:03:07;7.40;;;6.70;;
43996;SDS011;34318;45.818;15.964;2023-11-19T04:05:34;7.18;;;6.45;;
43996;SDS011;34318;45.818;15.964;2023-11-19T04:08:02;7.13;;;6.43;;
43996;SDS011;34318;45.818;15.964;2023-11-19T04:10:29;6.50;;;5.90;;
43996;SDS011;34318;45.818;15.964;2023-11-19T04:12:56;7.45;;;6.75;;
43996;SDS011;34318;45.818;15.964;2023-11-19T04:15:24;9.85;;;6.20;;
43996;SDS011;34318;45.818;15.964;2023-11-19T04:17:51;6.75;;;6.05;;
43996;SDS011;34318;45.818;15.964;2023-11-19T04:20:18;12.68;;;6.95;;
43996;SDS011;34318;45.818;15.964;2023-11-19T04:22:46;7.10;;;6.40;;
43996;SDS011;34318;45.818;15.964;2023-11-19T04:25:13;7.80;;;6.65;;
43996;SDS011;34318;45.818;15.964;2023-11-19T04:27:42;6.65;;;6.00;;
43996;SDS011;34318;45.818;15.964;2023-11-19T04:30:09;6.45;;;5.85;;
43996;SDS011;34318;45.818;15.964;2023-11-19T04:32:37;6.70;;;6.00;;
43996;SDS011;34318;45.818;15.964;2023-11-19T04:35:06;6.80;;;6.10;;
43996;SDS011;34318;45.818;15.964;2023-11-19T04:37:33;7.70;;;5.82;;
43996;SDS011;34318;45.818;15.964;2023-11-19T04:40:01;7.35;;;6.03;;
43996;SDS011;34318;45.818;15.964;2023-11-19T04:42:29;7.07;;;6.18;;
43996;SDS011;34318;45.818;15.964;2023-11-19T04:44:56;5.90;;;5.40;;
43996;SDS011;34318;45.818;15.964;2023-11-19T04:47:23;6.47;;;5.88;;
43996;SDS011;34318;45.818;15.964;2023-11-19T04:49:51;6.28;;;5.68;;
43996;SDS011;34318;45.818;15.964;2023-11-19T04:52:18;7.72;;;6.20;;
43996;SDS011;34318;45.818;15.964;2023-11-19T04:54:45;7.70;;;6.00;;
43996;SDS011;34318;45.818;15.964;2023-11-19T04:57:14;6.07;;;5.57;;
43996;SDS011;34318;45.818;15.964;2023-11-19T04:59:42;6.88;;;5.32;;
43996;SDS011;34318;45.818;15.964;2023-11-19T05:02:09;6.88;;;6.18;;
43996;SDS011;34318;45.818;15.964;2023-11-19T05:04:36;6.40;;;5.80;;
43996;SDS011;34318;45.818;15.964;2023-11-19T05:07:04;6.32;;;5.70;;
43996;SDS011;34318;45.818;15.964;2023-11-19T05:09:33;6.47;;;5.88;;
43996;SDS011;34318;45.818;15.964;2023-11-19T05:12:00;6.20;;;5.55;;
43996;SDS011;34318;45.818;15.964;2023-11-19T05:14:28;7.43;;;5.40;;
43996;SDS011;34318;45.818;15.964;2023-11-19T05:16:56;6.90;;;5.63;;
43996;SDS011;34318;45.818;15.964;2023-11-19T05:19:23;5.80;;;5.30;;
43996;SDS011;34318;45.818;15.964;2023-11-19T05:21:50;8.63;;;5.43;;
43996;SDS011;34318;45.818;15.964;2023-11-19T05:24:18;6.20;;;5.60;;
43996;SDS011;34318;45.818;15.964;2023-11-19T05:26:46;5.90;;;5.40;;
43996;SDS011;34318;45.818;15.964;2023-11-19T05:29:13;5.70;;;5.13;;
43996;SDS011;34318;45.818;15.964;2023-11-19T05:31:40;7.10;;;5.45;;
43996;SDS011;34318;45.818;15.964;2023-11-19T05:34:10;5.60;;;5.10;;
43996;SDS011;34318;45.818;15.964;2023-11-19T05:36:38;6.10;;;4.93;;
43996;SDS011;34318;45.818;15.964;2023-11-19T05:39:06;5.57;;;4.97;;
43996;SDS011;34318;45.818;15.964;2023-11-19T05:41:33;5.53;;;4.97;;
43996;SDS011;34318;45.818;15.964;2023-11-19T05:44:00;5.68;;;5.18;;
43996;SDS011;34318;45.818;15.964;2023-11-19T05:46:28;6.97;;;4.82;;
43996;SDS011;34318;45.818;15.964;2023-11-19T05:48:55;7.40;;;5.60;;
43996;SDS011;34318;45.818;15.964;2023-11-19T05:51:22;6.20;;;5.28;;
43996;SDS011;34318;45.818;15.964;2023-11-19T05:53:51;5.47;;;4.97;;
43996;SDS011;34318;45.818;15.964;2023-11-19T05:56:18;4.93;;;4.53;;
43996;SDS011;34318;45.818;15.964;2023-11-19T05:58:48;5.40;;;4.90;;
43996;SDS011;34318;45.818;15.964;2023-11-19T06:01:15;4.80;;;4.30;;
43996;SDS011;34318;45.818;15.964;2023-11-19T06:03:43;5.05;;;4.65;;
43996;SDS011;34318;45.818;15.964;2023-11-19T06:06:16;6.30;;;4.78;;
43996;SDS011;34318;45.818;15.964;2023-11-19T06:08:43;5.28;;;4.38;;
43996;SDS011;34318;45.818;15.964;2023-11-19T06:11:11;4.88;;;4.43;;
43996;SDS011;34318;45.818;15.964;2023-11-19T06:13:41;6.28;;;4.30;;
43996;SDS011;34318;45.818;15.964;2023-11-19T06:16:09;4.70;;;4.30;;
43996;SDS011;34318;45.818;15.964;2023-11-19T06:18:36;7.22;;;4.85;;
43996;SDS011;34318;45.818;15.964;2023-11-19T06:21:04;5.63;;;4.80;;
43996;SDS011;34318;45.818;15.964;2023-11-19T06:23:32;5.00;;;4.50;;
43996;SDS011;34318;45.818;15.964;2023-11-19T06:25:59;4.82;;;4.43;;
43996;SDS011;34318;45.818;15.964;2023-11-19T06:28:26;4.93;;;4.53;;
43996;SDS011;34318;45.818;15.964;2023-11-19T06:30:54;6.07;;;4.35;;
43996;SDS011;34318;45.818;15.964;2023-11-19T06:33:22;5.10;;;4.60;;
43996;SDS011;34318;45.818;15.964;2023-11-19T06:35:49;5.93;;;4.63;;
43996;SDS011;34318;45.818;15.964;2023-11-19T06:38:16;5.78;;;4.63;;
43996;SDS011;34318;45.818;15.964;2023-11-19T06:40:44;5.95;;;5.07;;
43996;SDS011;34318;45.818;15.964;2023-11-19T06:43:11;4.85;;;4.45;;
43996;SDS011;34318;45.818;15.964;2023-11-19T06:45:40;5.72;;;4.20;;
43996;SDS011;34318;45.818;15.964;2023-11-19T06:48:07;5.28;;;4.72;;
43996;SDS011;34318;45.818;15.964;2023-11-19T06:50:35;4.80;;;4.40;;
43996;SDS011;34318;45.818;15.964;2023-11-19T06:53:02;4.50;;;4.20;;
43996;SDS011;34318;45.818;15.964;2023-11-19T06:55:31;5.45;;;4.95;;
43996;SDS011;34318;45.818;15.964;2023-11-19T06:57:59;5.55;;;4.78;;
43996;SDS011;34318;45.818;15.964;2023-11-19T07:00:28;6.18;;;4.60;;
43996;SDS011;34318;45.818;15.964;2023-11-19T07:02:59;4.30;;;3.95;;
43996;SDS011;34318;45.818;15.964;2023-11-19T07:05:26;4.82;;;4.43;;
43996;SDS011;34318;45.818;15.964;2023-11-19T07:07:54;5.38;;;4.85;;
43996;SDS011;34318;45.818;15.964;2023-11-19T07:10:22;4.88;;;4.43;;
43996;SDS011;34318;45.818;15.964;2023-11-19T07:12:49;5.05;;;4.55;;
43996;SDS011;34318;45.818;15.964;2023-11-19T07:15:16;5.85;;;4.38;;
43996;SDS011;34318;45.818;15.964;2023-11-19T07:17:44;5.03;;;4.63;;
43996;SDS011;34318;45.818;15.964;2023-11-19T07:20:11;6.35;;;4.53;;
43996;SDS011;34318;45.818;15.964;2023-11-19T07:22:43;6.40;;;4.88;;
43996;SDS011;34318;45.818;15.964;2023-11-19T07:25:15;5.20;;;4.78;;
43996;SDS011;34318;45.818;15.964;2023-11-19T07:27:42;4.88;;;4.45;;
43996;SDS011;34318;45.818;15.964;2023-11-19T07:30:09;9.55;;;4.25;;
43996;SDS011;34318;45.818;15.964;2023-11-19T07:32:37;8.15;;;4.30;;
43996;SDS011;34318;45.818;15.964;2023-11-19T07:35:05;4.88;;;4.38;;
43996;SDS011;34318;45.818;15.964;2023-11-19T07:37:33;10.93;;;4.88;;
43996;SDS011;34318;45.818;15.964;2023-11-19T07:40:01;7.32;;;4.60;;
43996;SDS011;34318;45.818;15.964;2023-11-19T07:42:28;5.80;;;5.05;;
43996;SDS011;34318;45.818;15.964;2023-11-19T07:44:55;11.32;;;6.03;;
43996;SDS011;34318;45.818;15.964;2023-11-19T07:47:23;7.13;;;6.15;;
43996;SDS011;34318;45.818;15.964;2023-11-19T07:49:50;6.82;;;5.90;;
43996;SDS011;34318;45.818;15.964;2023-11-19T07:52:18;7.10;;;6.40;;
43996;SDS011;34318;45.818;15.964;2023-11-19T07:54:47;6.68;;;5.97;;
43996;SDS011;34318;45.818;15.964;2023-11-19T07:57:15;8.90;;;6.10;;
43996;SDS011;34318;45.818;15.964;2023-11-19T07:59:42;6.43;;;5.82;;
43996;SDS011;34318;45.818;15.964;2023-11-19T08:02:10;9.15;;;6.63;;
43996;SDS011;34318;45.818;15.964;2023-11-19T08:04:37;7.22;;;6.40;;
43996;SDS011;34318;45.818;15.964;2023-11-19T08:07:06;6.93;;;6.22;;
43996;SDS011;34318;45.818;15.964;2023-11-19T08:09:33;7.75;;;6.15;;
43996;SDS011;34318;45.818;15.964;2023-11-19T08:12:00;9.70;;;6.75;;
43996;SDS011;34318;45.818;15.964;2023-11-19T08:14:28;9.23;;;7.82;;
43996;SDS011;34318;45.818;15.964;2023-11-19T08:16:55;9.18;;;8.27;;
43996;SDS011;34318;45.818;15.964;2023-11-19T08:19:23;9.63;;;8.50;;
43996;SDS011;34318;45.818;15.964;2023-11-19T08:21:50;12.15;;;8.77;;
43996;SDS011;34318;45.818;15.964;2023-11-19T08:24:18;11.27;;;9.13;;
43996;SDS011;34318;45.818;15.964;2023-11-19T08:26:45;10.02;;;7.97;;
43996;SDS011;34318;45.818;15.964;2023-11-19T08:29:28;12.95;;;8.35;;
43996;SDS011;34318;45.818;15.964;2023-11-19T08:31:56;11.60;;;8.43;;
43996;SDS011;34318;45.818;15.964;2023-11-19T08:34:23;11.30;;;8.98;;
43996;SDS011;34318;45.818;15.964;2023-11-19T08:36:50;11.90;;;8.13;;
43996;SDS011;34318;45.818;15.964;2023-11-19T08:39:21;10.20;;;8.40;;
43996;SDS011;34318;45.818;15.964;2023-11-19T08:41:48;13.25;;;8.50;;
43996;SDS011;34318;45.818;15.964;2023-11-19T08:44:16;10.68;;;9.57;;
43996;SDS011;34318;45.818;15.964;2023-11-19T08:46:47;13.18;;;10.80;;
43996;SDS011;34318;45.818;15.964;2023-11-19T08:49:15;17.80;;;10.23;;
43996;SDS011;34318;45.818;15.964;2023-11-19T08:51:42;15.90;;;11.27;;
43996;SDS011;34318;45.818;15.964;2023-11-19T08:54:09;13.73;;;11.18;;
43996;SDS011;34318;45.818;15.964;2023-11-19T08:56:39;12.75;;;10.30;;
43996;SDS011;34318;45.818;15.964;2023-11-19T08:59:06;16.20;;;10.68;;
43996;SDS011;34318;45.818;15.964;2023-11-19T09:01:35;12.27;;;10.45;;
43996;SDS011;34318;45.818;15.964;2023-11-19T09:04:02;18.38;;;10.90;;
43996;SDS011;34318;45.818;15.964;2023-11-19T09:06:31;20.42;;;10.95;;
43996;SDS011;34318;45.818;15.964;2023-11-19T09:08:58;13.95;;;9.88;;
43996;SDS011;34318;45.818;15.964;2023-11-19T09:11:29;11.73;;;10.05;;
43996;SDS011;34318;45.818;15.964;2023-11-19T09:13:57;15.82;;;9.80;;
43996;SDS011;34318;45.818;15.964;2023-11-19T09:16:24;10.57;;;9.50;;
43996;SDS011;34318;45.818;15.964;2023-11-19T09:18:52;10.52;;;9.38;;
43996;SDS011;34318;45.818;15.964;2023-11-19T09:21:19;10.65;;;9.57;;
43996;SDS011;34318;45.818;15.964;2023-11-19T09:23:47;14.05;;;9.98;;
43996;SDS011;34318;45.818;15.964;2023-11-19T09:26:15;13.07;;;9.63;;
43996;SDS011;34318;45.818;15.964;2023-11-19T09:28:46;13.35;;;9.88;;
43996;SDS011;34318;45.818;15.964;2023-11-19T09:31:14;10.00;;;8.73;;
43996;SDS011;34318;45.818;15.964;2023-11-19T09:33:42;11.98;;;9.65;;
43996;SDS011;34318;45.818;15.964;2023-11-19T09:36:11;10.52;;;9.05;;
43996;SDS011;34318;45.818;15.964;2023-11-19T09:38:46;13.02;;;10.27;;
43996;SDS011;34318;45.818;15.964;2023-11-19T09:41:13;11.45;;;9.35;;
43996;SDS011;34318;45.818;15.964;2023-11-19T09:43:40;12.95;;;9.52;;
43996;SDS011;34318;45.818;15.964;2023-11-19T09:46:12;13.15;;;9.70;;
43996;SDS011;34318;45.818;15.964;2023-11-19T09:48:41;12.18;;;9.50;;
43996;SDS011;34318;45.818;15.964;2023-11-19T09:51:10;15.98;;;9.57;;
43996;SDS011;34318;45.818;15.964;2023-11-19T09:53:37;11.10;;;8.05;;
43996;SDS011;34318;45.818;15.964;2023-11-19T09:56:05;10.38;;;8.57;;
43996;SDS011;34318;45.818;15.964;2023-11-19T09:58:34;11.82;;;8.93;;
43996;SDS011;34318;45.818;15.964;2023-11-19T10:01:02;9.82;;;8.60;;
43996;SDS011;34318;45.818;15.964;2023-11-19T10:03:34;10.18;;;9.10;;
43996;SDS011;34318;45.818;15.964;2023-11-19T10:06:07;10.73;;;8.88;;
43996;SDS011;34318;45.818;15.964;2023-11-19T10:08:38;11.88;;;8.95;;
43996;SDS011;34318;45.818;15.964;2023-11-19T10:11:06;9.98;;;8.65;;
43996;SDS011;34318;45.818;15.964;2023-11-19T10:13:35;9.90;;;8.82;;
43996;SDS011;34318;45.818;15.964;2023-11-19T10:16:08;13.88;;;9.30;;
43996;SDS011;34318;45.818;15.964;2023-11-19T10:18:42;9.45;;;8.48;;
43996;SDS011;34318;45.818;15.964;2023-11-19T10:21:10;8.85;;;7.90;;
43996;SDS011;34318;45.818;15.964;2023-11-19T10:23:49;10.00;;;9.00;;
43996;SDS011;34318;45.818;15.964;2023-11-19T10:26:20;10.85;;;8.63;;
43996;SDS011;34318;45.818;15.964;2023-11-19T10:28:48;11.77;;;8.70;;
43996;SDS011;34318;45.818;15.964;2023-11-19T10:31:16;9.20;;;8.30;;
43996;SDS011;34318;45.818;15.964;2023-11-19T10:33:44;10.95;;;8.20;;
43996;SDS011;34318;45.818;15.964;2023-11-19T10:36:12;8.93;;;7.60;;
43996;SDS011;34318;45.818;15.964;2023-11-19T10:38:40;9.02;;;7.90;;
43996;SDS011;34318;45.818;15.964;2023-11-19T10:41:08;9.38;;;8.05;;
43996;SDS011;34318;45.818;15.964;2023-11-19T10:43:44;9.07;;;8.18;;
43996;SDS011;34318;45.818;15.964;2023-11-19T10:46:12;9.10;;;7.88;;
43996;SDS011;34318;45.818;15.964;2023-11-19T10:48:40;7.72;;;7.13;;
43996;SDS011;34318;45.818;15.964;2023-11-19T10:51:08;8.80;;;7.93;;
43996;SDS011;34318;45.818;15.964;2023-11-19T10:53:37;8.65;;;7.75;;
43996;SDS011;34318;45.818;15.964;2023-11-19T10:56:06;10.43;;;7.78;;
43996;SDS011;34318;45.818;15.964;2023-11-19T10:58:35;8.93;;;8.02;;
43996;SDS011;34318;45.818;15.964;2023-11-19T11:01:08;11.15;;;8.50;;
43996;SDS011;34318;45.818;15.964;2023-11-19T11:03:39;9.30;;;8.18;;
43996;SDS011;34318;45.818;15.964;2023-11-19T11:06:06;11.75;;;7.53;;
43996;SDS011;34318;45.818;15.964;2023-11-19T11:08:39;10.27;;;8.00;;
43996;SDS011;34318;45.818;15.964;2023-11-19T11:11:07;9.07;;;8.13;;
43996;SDS011;34318;45.818;15.964;2023-11-19T11:13:36;9.60;;;8.57;;
43996;SDS011;34318;45.818;15.964;2023-11-19T11:16:05;11.07;;;8.48;;
43996;SDS011;34318;45.818;15.964;2023-11-19T11:18:34;13.63;;;9.02;;
43996;SDS011;34318;45.818;15.964;2023-11-19T11:28:57;8.77;;;7.60;;
43996;SDS011;34318;45.818;15.964;2023-11-19T11:36:29;13.35;;;8.43;;
43996;SDS011;34318;45.818;15.964;2023-11-19T11:38:58;18.05;;;8.65;;
43996;SDS011;34318;45.818;15.964;2023-11-19T11:41:26;9.30;;;8.00;;
43996;SDS011;34318;45.818;15.964;2023-11-19T11:43:55;20.88;;;8.65;;
43996;SDS011;34318;45.818;15.964;2023-11-19T11:49:04;12.77;;;8.05;;
43996;SDS011;34318;45.818;15.964;2023-11-19T12:02:09;130.35;;;43.05;;
43996;SDS011;34318;45.818;15.964;2023-11-19T12:04:39;105.80;;;38.85;;
43996;SDS011;34318;45.818;15.964;2023-11-19T12:07:17;102.88;;;41.20;;
43996;SDS011;34318;45.818;15.964;2023-11-19T12:09:51;108.72;;;40.17;;
43996;SDS011;34318;45.818;15.964;2023-11-19T12:12:21;104.85;;;38.25;;
43996;SDS011;34318;45.818;15.964;2023-11-19T12:15:04;106.93;;;37.40;;
43996;SDS011;34318;45.818;15.964;2023-11-19T12:20:00;101.38;;;37.35;;
43996;SDS011;34318;45.818;15.964;2023-11-19T12:22:27;85.25;;;35.78;;
43996;SDS011;34318;45.818;15.964;2023-11-19T12:24:55;88.90;;;36.22;;
43996;SDS011;34318;45.818;15.964;2023-11-19T12:27:23;95.05;;;37.40;;
43996;SDS011;34318;45.818;15.964;2023-11-19T12:29:50;84.20;;;36.38;;
43996;SDS011;34318;45.818;15.964;2023-11-19T12:32:18;90.50;;;36.88;;
43996;SDS011;34318;45.818;15.964;2023-11-19T12:34:45;92.55;;;38.63;;
43996;SDS011;34318;45.818;15.964;2023-11-19T12:37:13;82.40;;;35.05;;
43996;SDS011;34318;45.818;15.964;2023-11-19T12:39:41;95.85;;;40.90;;
43996;SDS011;34318;45.818;15.964;2023-11-19T12:42:10;88.28;;;37.92;;
43996;SDS011;34318;45.818;15.964;2023-11-19T12:44:39;82.80;;;37.25;;
43996;SDS011;34318;45.818;15.964;2023-11-19T12:47:07;77.30;;;37.80;;
43996;SDS011;34318;45.818;15.964;2023-11-19T12:49:37;76.10;;;35.25;;
43996;SDS011;34318;45.818;15.964;2023-11-19T12:52:11;82.65;;;34.20;;
43996;SDS011;34318;45.818;15.964;2023-11-19T12:54:39;71.32;;;33.58;;
43996;SDS011;34318;45.818;15.964;2023-11-19T12:57:06;72.40;;;35.22;;
43996;SDS011;34318;45.818;15.964;2023-11-19T12:59:34;75.72;;;35.25;;
43996;SDS011;34318;45.818;15.964;2023-11-19T13:02:01;66.47;;;32.97;;
43996;SDS011;34318;45.818;15.964;2023-11-19T13:04:32;72.03;;;32.65;;
43996;SDS011;34318;45.818;15.964;2023-11-19T13:07:00;72.05;;;31.98;;
43996;SDS011;34318;45.818;15.964;2023-11-19T13:09:31;73.40;;;33.78;;
43996;SDS011;34318;45.818;15.964;2023-11-19T13:11:59;68.32;;;32.78;;
43996;SDS011;34318;45.818;15.964;2023-11-19T13:14:36;63.78;;;32.58;;
43996;SDS011;34318;45.818;15.964;2023-11-19T13:17:04;54.05;;;30.08;;
43996;SDS011;34318;45.818;15.964;2023-11-19T13:19:32;57.22;;;28.92;;
43996;SDS011;34318;45.818;15.964;2023-11-19T13:21:59;59.40;;;29.10;;
43996;SDS011;34318;45.818;15.964;2023-11-19T13:24:27;57.97;;;30.20;;
43996;SDS011;34318;45.818;15.964;2023-11-19T13:26:54;59.20;;;28.90;;
43996;SDS011;34318;45.818;15.964;2023-11-19T13:29:22;62.10;;;29.70;;
43996;SDS011;34318;45.818;15.964;2023-11-19T13:31:50;54.20;;;28.15;;
43996;SDS011;34318;45.818;15.964;2023-11-19T13:34:17;48.30;;;25.85;;
43996;SDS011;34318;45.818;15.964;2023-11-19T13:36:45;52.92;;;27.85;;
43996;SDS011;34318;45.818;15.964;2023-11-19T13:39:12;53.22;;;27.02;;
43996;SDS011;34318;45.818;15.964;2023-11-19T13:41:49;49.92;;;27.48;;
43996;SDS011;34318;45.818;15.964;2023-11-19T13:44:18;49.00;;;26.08;;
43996;SDS011;34318;45.818;15.964;2023-11-19T13:46:45;53.10;;;26.77;;
43996;SDS011;34318;45.818;15.964;2023-11-19T13:49:13;48.03;;;25.63;;
43996;SDS011;34318;45.818;15.964;2023-11-19T13:51:42;45.35;;;24.25;;
43996;SDS011;34318;45.818;15.964;2023-11-19T13:54:09;52.20;;;25.02;;
43996;SDS011;34318;45.818;15.964;2023-11-19T13:56:36;46.60;;;24.00;;
43996;SDS011;34318;45.818;15.964;2023-11-19T13:59:05;42.85;;;22.92;;
43996;SDS011;34318;45.818;15.964;2023-11-19T14:01:35;35.85;;;20.70;;
43996;SDS011;34318;45.818;15.964;2023-11-19T14:04:02;34.03;;;20.42;;
43996;SDS011;34318;45.818;15.964;2023-11-19T14:06:30;28.77;;;18.17;;
43996;SDS011;34318;45.818;15.964;2023-11-19T14:08:57;26.95;;;17.33;;
43996;SDS011;34318;45.818;15.964;2023-11-19T14:11:25;28.45;;;17.58;;
43996;SDS011;34318;45.818;15.964;2023-11-19T14:13:53;28.23;;;18.17;;
43996;SDS011;34318;45.818;15.964;2023-11-19T14:16:20;28.23;;;18.05;;
43996;SDS011;34318;45.818;15.964;2023-11-19T14:18:48;24.90;;;18.40;;
43996;SDS011;34318;45.818;15.964;2023-11-19T14:21:15;26.55;;;17.52;;
43996;SDS011;34318;45.818;15.964;2023-11-19T14:23:43;28.73;;;17.70;;
43996;SDS011;34318;45.818;15.964;2023-11-19T14:26:10;27.40;;;17.60;;
43996;SDS011;34318;45.818;15.964;2023-11-19T14:28:38;26.80;;;17.30;;
43996;SDS011;34318;45.818;15.964;2023-11-19T14:31:21;23.00;;;16.40;;
43996;SDS011;34318;45.818;15.964;2023-11-19T14:33:48;23.90;;;17.88;;
43996;SDS011;34318;45.818;15.964;2023-11-19T14:36:16;26.23;;;16.65;;
43996;SDS011;34318;45.818;15.964;2023-11-19T14:38:43;25.13;;;16.10;;
43996;SDS011;34318;45.818;15.964;2023-11-19T14:41:11;24.92;;;16.63;;
43996;SDS011;34318;45.818;15.964;2023-11-19T14:43:39;28.35;;;17.15;;
43996;SDS011;34318;45.818;15.964;2023-11-19T14:46:06;26.35;;;17.05;;
43996;SDS011;34318;45.818;15.964;2023-11-19T14:48:34;23.60;;;16.15;;
43996;SDS011;34318;45.818;15.964;2023-11-19T14:51:02;22.92;;;16.58;;
43996;SDS011;34318;45.818;15.964;2023-11-19T14:53:29;22.73;;;16.08;;
43996;SDS011;34318;45.818;15.964;2023-11-19T14:55:57;24.33;;;16.52;;